Terminal Aerodrome Forecast
Issued by NWS

Home | Current Version | Previous Version | Graphics & Text | Print | Product List | Glossary On
Versions: 1 2 3 4 5 6 7 8 9 10 11 12
053
FTUS43 KGRB 141720
TAFMTW
TAF
KMTW 141720Z 1418/1518 28007KT P6SM SCT008 SCT250
      TEMPO 1418/1420 BKN008 BKN250
     FM142000 27008KT P6SM SCT250
     FM150300 31005KT P6SM SKC
     FM150800 VRB03KT P6SM SKC
     FM151500 28005KT P6SM SCT250=

USA.gov is the U.S. government's official web portal to all federal, state and local government web resources and services.